sensor_id;sensor_type;location;lat;lon;timestamp;pressure;altitude;pressure_sealevel;temperature;humidity
58739;BME280;44512;53.046;18.604;2023-01-13T00:00:51;100870.53;;;9.32;68.13
58739;BME280;44512;53.046;18.604;2023-01-13T00:11:20;100855.52;;;9.30;68.76
58739;BME280;44512;53.046;18.604;2023-01-13T00:21:48;100854.69;;;9.29;69.51
58739;BME280;44512;53.046;18.604;2023-01-13T00:32:16;100846.31;;;9.24;70.68
58739;BME280;44512;53.046;18.604;2023-01-13T00:42:44;100837.21;;;9.25;71.13
58739;BME280;44512;53.046;18.604;2023-01-13T00:53:13;100830.28;;;9.37;71.29
58739;BME280;44512;53.046;18.604;2023-01-13T01:03:41;100813.67;;;9.40;71.33
58739;BME280;44512;53.046;18.604;2023-01-13T01:14:11;100813.30;;;9.44;71.39
58739;BME280;44512;53.046;18.604;2023-01-13T01:24:38;100803.39;;;9.51;71.31
58739;BME280;44512;53.046;18.604;2023-01-13T01:35:07;100791.18;;;9.55;71.21
58739;BME280;44512;53.046;18.604;2023-01-13T01:45:35;100781.04;;;9.57;71.19
58739;BME280;44512;53.046;18.604;2023-01-13T01:56:04;100768.15;;;9.59;71.36
58739;BME280;44512;53.046;18.604;2023-01-13T02:06:31;100755.23;;;9.54;71.58
58739;BME280;44512;53.046;18.604;2023-01-13T02:17:16;100748.27;;;9.45;71.98
58739;BME280;44512;53.046;18.604;2023-01-13T02:37:58;100738.68;;;9.21;72.75
58739;BME280;44512;53.046;18.604;2023-01-13T02:48:28;100725.29;;;9.13;73.12
58739;BME280;44512;53.046;18.604;2023-01-13T02:58:55;100720.15;;;9.18;73.11
58739;BME280;44512;53.046;18.604;2023-01-13T03:20:04;100712.04;;;9.18;73.12
58739;BME280;44512;53.046;18.604;2023-01-13T03:51:16;100696.98;;;9.09;73.99
58739;BME280;44512;53.046;18.604;2023-01-13T04:22:40;100704.82;;;9.04;74.70
58739;BME280;44512;53.046;18.604;2023-01-13T04:33:10;100693.02;;;9.05;74.95
58739;BME280;44512;53.046;18.604;2023-01-13T04:43:37;100693.39;;;9.02;75.27
58739;BME280;44512;53.046;18.604;2023-01-13T04:54:06;100704.45;;;9.07;75.37
58739;BME280;44512;53.046;18.604;2023-01-13T05:04:34;100694.41;;;9.01;75.55
58739;BME280;44512;53.046;18.604;2023-01-13T05:15:03;100705.23;;;9.01;75.74
58739;BME280;44512;53.046;18.604;2023-01-13T05:25:32;100699.82;;;9.01;75.90
58739;BME280;44512;53.046;18.604;2023-01-13T05:36:01;100710.62;;;9.01;75.88
58739;BME280;44512;53.046;18.604;2023-01-13T05:46:27;100706.88;;;9.02;75.92
58739;BME280;44512;53.046;18.604;2023-01-13T05:56:56;100711.45;;;9.01;75.74
58739;BME280;44512;53.046;18.604;2023-01-13T06:07:24;100715.62;;;9.04;75.66
58739;BME280;44512;53.046;18.604;2023-01-13T06:17:53;100715.26;;;9.07;75.60
58739;BME280;44512;53.046;18.604;2023-01-13T06:28:21;100727.72;;;9.08;75.43
58739;BME280;44512;53.046;18.604;2023-01-13T06:38:52;100730.22;;;9.09;75.35
58739;BME280;44512;53.046;18.604;2023-01-13T06:49:18;100729.38;;;9.09;75.29
58739;BME280;44512;53.046;18.604;2023-01-13T06:59:46;100736.09;;;9.13;75.28
58739;BME280;44512;53.046;18.604;2023-01-13T07:10:15;100741.11;;;9.16;74.76
58739;BME280;44512;53.046;18.604;2023-01-13T07:20:43;100741.95;;;9.17;75.04
58739;BME280;44512;53.046;18.604;2023-01-13T07:31:14;100751.52;;;9.19;74.92
58739;BME280;44512;53.046;18.604;2023-01-13T07:41:40;100756.55;;;9.22;74.81
58739;BME280;44512;53.046;18.604;2023-01-13T07:52:08;100769.85;;;9.24;74.76
58739;BME280;44512;53.046;18.604;2023-01-13T08:02:37;100763.63;;;9.23;74.71
58739;BME280;44512;53.046;18.604;2023-01-13T08:13:13;100776.09;;;9.24;74.78
58739;BME280;44512;53.046;18.604;2023-01-13T08:23:33;100778.23;;;9.29;74.69
58739;BME280;44512;53.046;18.604;2023-01-13T08:34:02;100782.03;;;9.34;74.78
58739;BME280;44512;53.046;18.604;2023-01-13T08:44:31;100791.99;;;9.34;74.78
58739;BME280;44512;53.046;18.604;2023-01-13T08:54:58;100806.34;;;9.34;74.89
58739;BME280;44512;53.046;18.604;2023-01-13T09:05:27;100820.30;;;9.38;74.69
58739;BME280;44512;53.046;18.604;2023-01-13T09:15:56;100817.80;;;9.36;74.86
58739;BME280;44512;53.046;18.604;2023-01-13T09:26:23;100814.08;;;9.37;75.19
58739;BME280;44512;53.046;18.604;2023-01-13T09:42:21;100803.64;;;9.34;75.65
58739;BME280;44512;53.046;18.604;2023-01-13T09:52:33;100796.36;;;9.35;75.90
58739;BME280;44512;53.046;18.604;2023-01-13T10:13:30;100779.23;;;9.43;75.71
58739;BME280;44512;53.046;18.604;2023-01-13T10:24:06;100770.98;;;9.51;75.76
58739;BME280;44512;53.046;18.604;2023-01-13T10:34:27;100760.09;;;9.65;75.66
58739;BME280;44512;53.046;18.604;2023-01-13T10:44:57;100762.89;;;9.72;75.35
58739;BME280;44512;53.046;18.604;2023-01-13T10:55:30;100757.91;;;9.76;75.08
58739;BME280;44512;53.046;18.604;2023-01-13T11:05:54;100762.54;;;9.82;74.74
58739;BME280;44512;53.046;18.604;2023-01-13T11:16:20;100775.47;;;9.86;74.29
58739;BME280;44512;53.046;18.604;2023-01-13T11:26:58;100756.80;;;9.91;74.13
58739;BME280;44512;53.046;18.604;2023-01-13T11:37:23;100750.23;;;10.01;73.62
58739;BME280;44512;53.046;18.604;2023-01-13T11:47:47;100736.12;;;10.05;73.01
58739;BME280;44512;53.046;18.604;2023-01-13T12:29:39;100737.20;;;10.11;73.19
58739;BME280;44512;53.046;18.604;2023-01-13T12:40:18;100755.68;;;10.07;73.16
58739;BME280;44512;53.046;18.604;2023-01-13T12:50:37;100750.68;;;10.04;73.36
58739;BME280;44512;53.046;18.604;2023-01-13T13:01:10;100756.92;;;10.05;73.46
58739;BME280;44512;53.046;18.604;2023-01-13T13:11:42;100757.74;;;10.05;73.85
58739;BME280;44512;53.046;18.604;2023-01-13T13:42:57;100769.02;;;10.09;73.75
58739;BME280;44512;53.046;18.604;2023-01-13T13:53:30;100785.25;;;10.09;73.64
58739;BME280;44512;53.046;18.604;2023-01-13T14:04:04;100795.66;;;10.12;73.98
58739;BME280;44512;53.046;18.604;2023-01-13T14:14:23;100806.43;;;10.05;74.19
58739;BME280;44512;53.046;18.604;2023-01-13T14:24:51;100811.80;;;9.99;74.48
58739;BME280;44512;53.046;18.604;2023-01-13T14:35:20;100807.99;;;9.93;74.79
58739;BME280;44512;53.046;18.604;2023-01-13T14:45:58;100795.89;;;9.89;74.35
58739;BME280;44512;53.046;18.604;2023-01-13T15:06:46;100785.53;;;9.93;73.08
58739;BME280;44512;53.046;18.604;2023-01-13T15:17:15;100777.27;;;10.01;72.98
58739;BME280;44512;53.046;18.604;2023-01-13T15:27:43;100803.52;;;10.07;72.60
58739;BME280;44512;53.046;18.604;2023-01-13T15:38:12;100808.05;;;10.00;72.12
58739;BME280;44512;53.046;18.604;2023-01-13T15:48:38;100826.73;;;9.95;72.34
58739;BME280;44512;53.046;18.604;2023-01-13T15:59:16;100830.58;;;9.85;72.56
58739;BME280;44512;53.046;18.604;2023-01-13T16:09:35;100833.54;;;9.90;72.82
58739;BME280;44512;53.046;18.604;2023-01-13T16:20:04;100827.93;;;9.92;72.91
58739;BME280;44512;53.046;18.604;2023-01-13T16:30:36;100861.62;;;9.89;72.69
58739;BME280;44512;53.046;18.604;2023-01-13T16:41:00;100863.16;;;9.77;72.42
58739;BME280;44512;53.046;18.604;2023-01-13T16:51:28;100852.57;;;9.61;72.51
58739;BME280;44512;53.046;18.604;2023-01-13T17:01:56;100868.23;;;9.51;72.63
58739;BME280;44512;53.046;18.604;2023-01-13T17:12:25;100875.80;;;9.40;72.55
58739;BME280;44512;53.046;18.604;2023-01-13T17:22:54;100887.10;;;9.29;72.38
58739;BME280;44512;53.046;18.604;2023-01-13T17:33:22;100893.66;;;9.20;72.49
58739;BME280;44512;53.046;18.604;2023-01-13T17:43:51;100898.12;;;9.13;72.51
58739;BME280;44512;53.046;18.604;2023-01-13T17:54:19;100910.02;;;9.04;72.39
58739;BME280;44512;53.046;18.604;2023-01-13T18:04:47;100904.06;;;8.94;72.00
58739;BME280;44512;53.046;18.604;2023-01-13T18:15:15;100906.03;;;8.85;71.73
58739;BME280;44512;53.046;18.604;2023-01-13T18:25:45;100915.03;;;8.77;71.43
58739;BME280;44512;53.046;18.604;2023-01-13T18:36:13;100915.28;;;8.68;71.38
58739;BME280;44512;53.046;18.604;2023-01-13T18:46:40;100922.25;;;8.62;71.41
58739;BME280;44512;53.046;18.604;2023-01-13T18:57:09;100924.02;;;8.55;71.33
58739;BME280;44512;53.046;18.604;2023-01-13T19:07:37;100949.39;;;8.46;71.16
58739;BME280;44512;53.046;18.604;2023-01-13T19:18:05;100949.28;;;8.39;71.53
58739;BME280;44512;53.046;18.604;2023-01-13T19:28:35;100967.15;;;8.32;70.67
58739;BME280;44512;53.046;18.604;2023-01-13T19:39:03;100964.71;;;8.22;70.35
58739;BME280;44512;53.046;18.604;2023-01-13T19:49:32;100974.36;;;8.17;70.15
58739;BME280;44512;53.046;18.604;2023-01-13T19:59:59;100991.23;;;8.10;70.03
58739;BME280;44512;53.046;18.604;2023-01-13T20:10:27;100997.14;;;8.06;69.83
58739;BME280;44512;53.046;18.604;2023-01-13T20:20:56;101004.59;;;8.04;69.81
58739;BME280;44512;53.046;18.604;2023-01-13T20:31:24;101021.07;;;8.09;69.52
58739;BME280;44512;53.046;18.604;2023-01-13T20:41:53;101034.55;;;8.09;68.79
58739;BME280;44512;53.046;18.604;2023-01-13T20:52:21;101015.89;;;7.99;68.26
58739;BME280;44512;53.046;18.604;2023-01-13T21:02:49;101022.18;;;7.92;67.83
58739;BME280;44512;53.046;18.604;2023-01-13T21:13:18;101032.34;;;7.81;67.94
58739;BME280;44512;53.046;18.604;2023-01-13T21:23:46;101039.78;;;7.71;67.82
58739;BME280;44512;53.046;18.604;2023-01-13T21:34:15;101047.88;;;7.63;67.79
58739;BME280;44512;53.046;18.604;2023-01-13T21:44:43;101047.92;;;7.55;67.72
58739;BME280;44512;53.046;18.604;2023-01-13T21:55:12;101050.81;;;7.45;67.73
58739;BME280;44512;53.046;18.604;2023-01-13T22:05:40;101047.60;;;7.42;67.70
58739;BME280;44512;53.046;18.604;2023-01-13T22:16:08;101052.48;;;7.38;67.58
58739;BME280;44512;53.046;18.604;2023-01-13T22:26:36;101057.41;;;7.35;67.52
58739;BME280;44512;53.046;18.604;2023-01-13T22:37:05;101065.14;;;7.29;67.22
58739;BME280;44512;53.046;18.604;2023-01-13T22:47:33;101062.12;;;7.24;67.14
58739;BME280;44512;53.046;18.604;2023-01-13T22:58:02;101065.80;;;7.23;67.08
58739;BME280;44512;53.046;18.604;2023-01-13T23:08:32;101067.00;;;7.21;67.04
58739;BME280;44512;53.046;18.604;2023-01-13T23:18:58;101073.55;;;7.18;66.85
58739;BME280;44512;53.046;18.604;2023-01-13T23:29:27;101072.23;;;7.14;66.74
58739;BME280;44512;53.046;18.604;2023-01-13T23:39:56;101073.06;;;7.15;66.90
58739;BME280;44512;53.046;18.604;2023-01-13T23:50:24;101077.25;;;7.17;66.69
